createdAt,value
2018-02-02T06:45:31.724Z,22.80
2018-02-02T06:49:16.097Z,22.60
2018-02-02T06:51:44.208Z,20.80
2018-02-02T06:54:12.197Z,18.70
2018-02-02T06:56:41.679Z,16.20
2018-02-02T06:59:10.824Z,15.20
2018-02-02T07:01:38.996Z,15.20
2018-02-02T07:04:07.714Z,15.30
2018-02-02T07:06:36.250Z,16.90
2018-02-02T07:09:05.341Z,19.10
2018-02-02T07:11:33.537Z,19.00
2018-02-02T07:14:01.782Z,19.60
2018-02-02T07:16:30.113Z,20.00
2018-02-02T07:18:58.306Z,20.20
2018-02-02T07:21:26.269Z,20.40
2018-02-02T07:23:54.563Z,20.50
2018-02-02T07:26:22.748Z,20.70
2018-02-02T07:28:50.720Z,20.80
2018-02-02T07:31:19.726Z,20.90
2018-02-02T07:33:47.985Z,20.90
2018-02-02T07:36:16.423Z,20.90
2018-02-02T07:38:44.332Z,21.00
2018-02-02T07:41:12.353Z,21.00
2018-02-02T07:43:44.212Z,21.10
2018-02-02T07:46:12.182Z,21.10
2018-02-02T07:48:39.927Z,21.00
2018-02-02T07:51:08.241Z,21.00
2018-02-02T07:53:36.797Z,21.10
2018-02-02T07:56:04.765Z,21.10
2018-02-02T07:58:32.904Z,21.30
2018-02-02T08:01:00.849Z,21.40
2018-02-02T08:03:28.835Z,21.50
2018-02-02T08:05:57.037Z,21.50
2018-02-02T08:08:24.760Z,21.40
2018-02-02T08:10:52.758Z,21.40
2018-02-02T08:13:21.027Z,21.50
2018-02-02T08:15:49.129Z,21.50
2018-02-02T08:18:17.448Z,21.50
2018-02-02T08:20:45.753Z,21.50
2018-02-02T08:23:14.721Z,21.60
2018-02-02T08:25:43.028Z,21.60
2018-02-02T08:28:11.191Z,21.60
2018-02-02T08:30:39.209Z,21.70
2018-02-02T08:33:08.003Z,21.70
2018-02-02T08:35:36.574Z,21.70
2018-02-02T08:38:04.579Z,21.70
2018-02-02T08:40:33.308Z,21.70
2018-02-02T08:43:01.574Z,21.60
2018-02-02T08:45:29.832Z,21.60
2018-02-02T08:47:57.590Z,21.70
2018-02-02T08:50:25.367Z,21.70
2018-02-02T08:52:53.348Z,21.70
2018-02-02T08:55:21.537Z,21.70
2018-02-02T08:57:49.604Z,21.70
2018-02-02T09:00:17.485Z,21.60
2018-02-02T09:02:45.414Z,21.60
2018-02-02T09:05:13.351Z,21.50
2018-02-02T09:07:41.860Z,21.70
2018-02-02T09:10:10.155Z,21.90
2018-02-02T09:12:38.409Z,22.00
2018-02-02T09:15:06.501Z,22.00
2018-02-02T09:17:34.373Z,22.00
2018-02-02T09:20:03.174Z,22.00
2018-02-02T09:22:31.698Z,22.00
2018-02-02T09:24:59.722Z,21.90
2018-02-02T09:27:28.045Z,21.90
2018-02-02T09:29:56.561Z,21.90
2018-02-02T09:32:24.700Z,21.90
2018-02-02T09:34:52.917Z,22.00
2018-02-02T09:37:21.996Z,22.00
2018-02-02T09:39:50.042Z,22.00
2018-02-02T09:42:17.914Z,22.00
2018-02-02T09:44:46.340Z,22.00
2018-02-02T09:47:14.382Z,22.00
2018-02-02T09:49:42.328Z,22.00
2018-02-02T09:52:10.811Z,22.10
2018-02-02T09:54:38.943Z,22.00
2018-02-02T09:57:06.958Z,22.00
2018-02-02T09:59:35.243Z,22.00
2018-02-02T10:02:03.519Z,22.10
2018-02-02T10:04:32.196Z,22.10
2018-02-02T10:07:00.222Z,22.10
2018-02-02T10:09:28.150Z,22.10
2018-02-02T10:11:57.261Z,22.10
2018-02-02T10:14:25.767Z,22.10
2018-02-02T10:16:54.350Z,22.10
2018-02-02T10:19:22.809Z,22.10
2018-02-02T10:21:50.804Z,22.10
2018-02-02T10:24:19.397Z,22.10
2018-02-02T10:26:47.283Z,22.10
2018-02-02T10:29:15.324Z,22.10
2018-02-02T10:31:43.151Z,21.90
2018-02-02T10:34:11.236Z,21.90
2018-02-02T10:36:39.350Z,22.10
2018-02-02T10:39:07.618Z,22.10
2018-02-02T10:41:35.681Z,22.10
2018-02-02T10:44:04.034Z,22.20
2018-02-02T10:46:32.316Z,22.20
2018-02-02T10:49:00.610Z,22.20
2018-02-02T10:51:28.862Z,22.20
2018-02-02T10:53:57.457Z,22.30
2018-02-02T10:56:25.730Z,22.30
2018-02-02T10:58:54.187Z,22.20
2018-02-02T11:01:22.924Z,22.20
2018-02-02T11:03:52.242Z,22.30
2018-02-02T12:01:14.955Z,22.10
2018-02-02T12:03:43.578Z,22.00
2018-02-02T12:06:13.474Z,22.30
2018-02-02T12:08:41.486Z,22.30
2018-02-02T12:11:09.636Z,22.40
2018-02-02T12:13:38.548Z,22.50
2018-02-02T12:16:06.845Z,22.50
2018-02-02T12:18:35.276Z,22.50
2018-02-02T12:21:04.734Z,22.50
2018-02-02T12:23:33.127Z,22.50
2018-02-02T12:26:01.770Z,22.40
2018-02-02T12:28:30.322Z,22.40
2018-02-02T12:30:59.505Z,22.40
2018-02-02T12:33:27.953Z,22.40
2018-02-02T12:35:56.252Z,22.40
2018-02-02T12:38:25.822Z,22.40
2018-02-02T12:40:54.466Z,22.40
2018-02-02T12:43:23.639Z,22.40
2018-02-02T12:45:52.158Z,22.40
2018-02-02T12:48:20.800Z,22.40
2018-02-02T12:50:48.756Z,22.40
2018-02-02T12:53:16.846Z,22.50
2018-02-02T12:55:45.125Z,22.40
2018-02-02T12:58:13.241Z,22.50
2018-02-02T13:00:41.893Z,22.50
2018-02-02T13:03:10.910Z,22.50
2018-02-02T13:05:39.577Z,22.50
2018-02-02T13:08:07.540Z,22.50
2018-02-02T13:10:35.789Z,22.50
2018-02-02T13:13:05.257Z,22.50
2018-02-02T13:15:33.144Z,22.40
2018-02-02T13:18:01.573Z,22.40
2018-02-02T13:20:30.026Z,22.50
2018-02-02T13:22:58.799Z,22.30
2018-02-02T13:25:27.031Z,22.30
2018-02-02T13:27:55.148Z,22.30
2018-02-02T13:30:24.062Z,22.40
2018-02-02T13:32:52.162Z,22.30
2018-02-02T13:35:20.313Z,22.40
2018-02-02T13:37:48.905Z,22.50
2018-02-02T13:40:17.698Z,22.50
2018-02-02T13:42:47.133Z,22.60
2018-02-02T13:45:15.691Z,22.60
2018-02-02T13:47:44.221Z,22.60
2018-02-02T13:50:12.792Z,22.60
2018-02-02T13:52:41.575Z,22.60
2018-02-02T13:55:09.923Z,22.60
2018-02-02T13:57:38.509Z,22.50
2018-02-02T14:00:06.950Z,22.50
2018-02-02T14:02:34.709Z,22.50
2018-02-02T14:05:03.110Z,22.50
2018-02-02T14:07:31.352Z,22.50
2018-02-02T14:09:59.443Z,22.50
2018-02-02T14:12:27.561Z,22.50
2018-02-02T14:14:55.867Z,22.60
2018-02-02T14:17:24.590Z,22.50
2018-02-02T14:19:52.522Z,22.50
2018-02-02T14:22:20.844Z,22.50
2018-02-02T14:24:49.147Z,22.50
2018-02-02T14:27:18.034Z,22.50
2018-02-02T14:29:46.005Z,22.50
2018-02-02T14:32:14.143Z,22.50
2018-02-02T14:34:42.324Z,22.50
2018-02-02T14:37:10.794Z,22.50
2018-02-02T14:39:38.844Z,22.50
2018-02-02T14:42:08.100Z,22.50
2018-02-02T14:44:36.239Z,22.50
2018-02-02T14:47:04.617Z,22.50
2018-02-02T14:49:33.127Z,22.50
2018-02-02T14:52:01.981Z,22.60
2018-02-02T14:54:30.052Z,22.50
2018-02-02T15:00:01.165Z,22.60
2018-02-02T15:02:29.317Z,22.50
2018-02-02T15:04:58.228Z,22.50
2018-02-02T15:07:26.987Z,22.50
2018-02-02T15:09:55.763Z,22.50
2018-02-02T15:12:25.049Z,22.50
2018-02-02T15:14:53.359Z,22.50
2018-02-02T15:17:22.040Z,22.50
2018-02-02T15:19:51.320Z,22.50
2018-02-02T15:22:20.771Z,22.60
2018-02-02T15:24:48.892Z,22.60
2018-02-02T15:27:17.105Z,22.50
2018-02-02T15:29:45.226Z,22.60
2018-02-02T15:32:14.586Z,22.60
2018-02-02T15:34:42.787Z,22.80
2018-02-02T15:37:11.071Z,22.70
2018-02-02T15:39:39.236Z,22.70
2018-02-02T15:42:07.463Z,22.60
2018-02-02T15:44:35.950Z,22.60
2018-02-02T15:47:04.816Z,22.50
2018-02-02T15:49:33.883Z,22.50
2018-02-02T15:52:02.688Z,22.50
2018-02-02T15:54:30.817Z,22.50
2018-02-02T15:56:58.982Z,22.60
2018-02-02T15:59:27.964Z,22.50
2018-02-02T16:01:56.490Z,22.50
